Map

Track Data

SID SEASON NUMBER BASIN SUBBASIN NAME ISO_TIME NATURE LAT LON WMO_WIND WMO_PRES WMO_AGENCY TRACK_TYPE DIST2LAND LANDFALL IFLAG USA_AGENCY USA_ATCF_ID USA_LAT USA_LON USA_RECORD USA_STATUS USA_WIND USA_PRES USA_SSHS USA_R34_NE USA_R34_SE USA_R34_SW USA_R34_NW USA_R50_NE USA_R50_SE USA_R50_SW USA_R50_NW USA_R64_NE USA_R64_SE USA_R64_SW USA_R64_NW USA_POCI USA_ROCI USA_RMW USA_EYE TOKYO_LAT TOKYO_LON TOKYO_GRADE TOKYO_WIND TOKYO_PRES TOKYO_R50_DIR TOKYO_R50_LONG TOKYO_R50_SHORT TOKYO_R30_DIR TOKYO_R30_LONG TOKYO_R30_SHORT TOKYO_LAND CMA_LAT CMA_LON CMA_CAT CMA_WIND CMA_PRES HKO_LAT HKO_LON HKO_CAT HKO_WIND HKO_PRES NEWDELHI_LAT NEWDELHI_LON NEWDELHI_GRADE NEWDELHI_WIND NEWDELHI_PRES NEWDELHI_CI NEWDELHI_DP NEWDELHI_POCI REUNION_LAT REUNION_LON REUNION_TYPE REUNION_WIND REUNION_PRES REUNION_TNUM REUNION_CI REUNION_RMW REUNION_R34_NE REUNION_R34_SE REUNION_R34_SW REUNION_R34_NW REUNION_R50_NE REUNION_R50_SE REUNION_R50_SW REUNION_R50_NW REUNION_R64_NE REUNION_R64_SE REUNION_R64_SW REUNION_R64_NW BOM_LAT BOM_LON BOM_TYPE BOM_WIND BOM_PRES BOM_TNUM BOM_CI BOM_RMW BOM_R34_NE BOM_R34_SE BOM_R34_SW BOM_R34_NW BOM_R50_NE BOM_R50_SE BOM_R50_SW BOM_R50_NW BOM_R64_NE BOM_R64_SE BOM_R64_SW BOM_R64_NW BOM_ROCI BOM_POCI BOM_EYE BOM_POS_METHOD BOM_PRES_METHOD NADI_LAT NADI_LON NADI_CAT NADI_WIND NADI_PRES WELLINGTON_LAT WELLINGTON_LON WELLINGTON_WIND WELLINGTON_PRES DS824_LAT DS824_LON DS824_STAGE DS824_WIND DS824_PRES TD9636_LAT TD9636_LON TD9636_STAGE TD9636_WIND TD9636_PRES TD9635_LAT TD9635_LON TD9635_WIND TD9635_PRES TD9635_ROCI NEUMANN_LAT NEUMANN_LON NEUMANN_CLASS NEUMANN_WIND NEUMANN_PRES MLC_LAT MLC_LON MLC_CLASS MLC_WIND MLC_PRES USA_GUST BOM_GUST BOM_GUST_PER REUNION_GUST REUNION_GUST_PER USA_SEAHGT USA_SEARAD_NE USA_SEARAD_SE USA_SEARAD_SW USA_SEARAD_NW STORM_SPEED STORM_DIR
1876227N26295 1876 12 NA NA NOT_NAMED 1876-08-13 12:00:00 TS 26.0000 -65.0000 main 851 851 _____________O -1 26.0000 -65.0000 TS 35 6 329
1876227N26295 1876 12 NA NA NOT_NAMED 1876-08-13 15:00:00 TS 26.2501 -65.1623 main 884 884 _____________P -1 26.2501 -65.1623 TS 40 6 332
1876227N26295 1876 12 NA NA NOT_NAMED 1876-08-13 18:00:00 TS 26.5000 -65.3000 main 902 902 _____________O -1 26.5000 -65.3000 TS 45 5 337
1876227N26295 1876 12 NA NA NOT_NAMED 1876-08-13 21:00:00 TS 26.7500 -65.4001 main 918 918 _____________P -1 26.7500 -65.4001 TS 50 5 340
1876227N26295 1876 12 NA NA NOT_NAMED 1876-08-14 00:00:00 TS 27.0000 -65.5000 main 944 944 _____________O -1 27.0000 -65.5000 TS 55 5 336
1876227N26295 1876 12 NA NA NOT_NAMED 1876-08-14 03:00:00 TS 27.2500 -65.6500 main 970 965 _____________P -1 27.2500 -65.6500 TS 57 6 332
1876227N26295 1876 12 NA NA NOT_NAMED 1876-08-14 06:00:00 TS 27.5000 -65.8000 main 980 980 _____________O -1 27.5000 -65.8000 TS 60 5 338
1876227N26295 1876 12 NA NA NOT_NAMED 1876-08-14 09:00:00 TS 27.7348 -65.8705 main 996 996 _____________P -1 27.7348 -65.8705 TS 62 5 340
1876227N26295 1876 12 NA NA NOT_NAMED 1876-08-14 12:00:00 TS 28.0000 -66.0000 main 1022 1022 _____________O -1 28.0000 -66.0000 HU 65 7 327
1876227N26295 1876 12 NA NA NOT_NAMED 1876-08-14 15:00:00 TS 28.3427 -66.3196 main 1041 1041 _____________P -1 28.3427 -66.3196 HU 60 9 319
1876227N26295 1876 12 NA NA NOT_NAMED 1876-08-14 18:00:00 TS 28.7000 -66.7000 main 1050 1050 _____________O -1 28.7000 -66.7000 TS 55 9 318
1876227N26295 1876 12 NA NA NOT_NAMED 1876-08-14 21:00:00 TS 29.0074 -67.0078 main 1059 1051 _____________P -1 29.0074 -67.0078 TS 50 8 319
1876227N26295 1876 12 NA NA NOT_NAMED 1876-08-15 00:00:00 TS 29.3000 -67.3000 main 1051 1007 _____________O -1 29.3000 -67.3000 TS 45 8 319
1876227N26295 1876 12 NA NA NOT_NAMED 1876-08-15 03:00:00 TS 29.5999 -67.6002 main 1007 964 _____________P -1 29.5999 -67.6002 TS 40 8 319
1876227N26295 1876 12 NA NA NOT_NAMED 1876-08-15 06:00:00 TS 29.9000 -67.9000 main 964 920 _____________O -1 29.9000 -67.9000 TS 35 8 318
1876227N26295 1876 12 NA NA NOT_NAMED 1876-08-15 09:00:00 TS 30.1925 -68.2077 main 920 877 _____________P -1 30.1925 -68.2077 TS 32 8 319
1876227N26295 1876 12 NA NA NOT_NAMED 1876-08-15 12:00:00 TS 30.5000 -68.5000 main 877 834 _____________O -1 30.5000 -68.5000 TD 30 8 322
1876227N26295 1876 12 NA NA NOT_NAMED 1876-08-15 15:00:00 TS 30.8350 -68.7948 main 834 790 _____________P -1 30.8350 -68.7948 TD 30 8 328
1876227N26295 1876 12 NA NA NOT_NAMED 1876-08-15 18:00:00 TS 31.2000 -69.0000 main 790 760 _____________O -1 31.2000 -69.0000 TD 30 8 344
1876227N26295 1876 12 NA NA NOT_NAMED 1876-08-15 21:00:00 TS 31.5925 -69.0479 main 760 733 _____________P -1 31.5925 -69.0479 TD 30 8 1
1876227N26295 1876 12 NA NA NOT_NAMED 1876-08-16 00:00:00 TS 32.0000 -69.0000 main 733 _____________O -1 32.0000 -69.0000 TD 30 8 5

About IBTrACS Database

This database is a web-friendly format of International Best Track Archive for Climate Stewardship (IBTrACS), a global best track data archive curated by NOAA dating back to 1842.

Updated: 2021-11-26